sensor_id;sensor_type;location;lat;lon;timestamp;P1;P2;P0
49644;PMS5003;36494;50.730;-1.932;2023-04-24T00:02:20;32;28;
49644;PMS5003;36494;50.730;-1.932;2023-04-24T00:04:45;24;23;
49644;PMS5003;36494;50.730;-1.932;2023-04-24T00:07:10;25;25;
49644;PMS5003;36494;50.730;-1.932;2023-04-24T00:09:36;28;28;
49644;PMS5003;36494;50.730;-1.932;2023-04-24T00:12:01;30;27;
49644;PMS5003;36494;50.730;-1.932;2023-04-24T00:14:27;31;29;
49644;PMS5003;36494;50.730;-1.932;2023-04-24T00:16:52;30;29;
49644;PMS5003;36494;50.730;-1.932;2023-04-24T00:19:18;28;27;
49644;PMS5003;36494;50.730;-1.932;2023-04-24T00:21:43;27;25;
49644;PMS5003;36494;50.730;-1.932;2023-04-24T00:24:09;26;26;
49644;PMS5003;36494;50.730;-1.932;2023-04-24T00:26:34;26;26;
49644;PMS5003;36494;50.730;-1.932;2023-04-24T00:29:00;26;25;
49644;PMS5003;36494;50.730;-1.932;2023-04-24T00:31:25;24;23;
49644;PMS5003;36494;50.730;-1.932;2023-04-24T00:33:51;32;29;
49644;PMS5003;36494;50.730;-1.932;2023-04-24T00:36:16;27;26;
49644;PMS5003;36494;50.730;-1.932;2023-04-24T00:38:42;33;31;
49644;PMS5003;36494;50.730;-1.932;2023-04-24T00:41:07;32;30;
49644;PMS5003;36494;50.730;-1.932;2023-04-24T00:43:34;29;27;
49644;PMS5003;36494;50.730;-1.932;2023-04-24T00:45:58;33;31;
49644;PMS5003;36494;50.730;-1.932;2023-04-24T00:48:28;30;29;
49644;PMS5003;36494;50.730;-1.932;2023-04-24T00:50:48;27;27;
49644;PMS5003;36494;50.730;-1.932;2023-04-24T00:53:13;28;25;
49644;PMS5003;36494;50.730;-1.932;2023-04-24T00:55:39;27;25;
49644;PMS5003;36494;50.730;-1.932;2023-04-24T00:58:04;28;27;
49644;PMS5003;36494;50.730;-1.932;2023-04-24T01:00:30;33;31;
49644;PMS5003;36494;50.730;-1.932;2023-04-24T01:02:55;27;26;
49644;PMS5003;36494;50.730;-1.932;2023-04-24T01:05:21;23;21;
49644;PMS5003;36494;50.730;-1.932;2023-04-24T01:07:46;28;27;
49644;PMS5003;36494;50.730;-1.932;2023-04-24T01:10:12;27;25;
49644;PMS5003;36494;50.730;-1.932;2023-04-24T01:12:37;28;27;
49644;PMS5003;36494;50.730;-1.932;2023-04-24T01:15:03;25;24;
49644;PMS5003;36494;50.730;-1.932;2023-04-24T01:17:27;24;21;
49644;PMS5003;36494;50.730;-1.932;2023-04-24T01:19:52;28;26;
49644;PMS5003;36494;50.730;-1.932;2023-04-24T01:22:18;27;26;
49644;PMS5003;36494;50.730;-1.932;2023-04-24T01:24:44;30;28;
49644;PMS5003;36494;50.730;-1.932;2023-04-24T01:27:10;25;24;
49644;PMS5003;36494;50.730;-1.932;2023-04-24T01:29:35;21;21;
49644;PMS5003;36494;50.730;-1.932;2023-04-24T01:32:01;28;26;
49644;PMS5003;36494;50.730;-1.932;2023-04-24T01:34:26;29;28;
49644;PMS5003;36494;50.730;-1.932;2023-04-24T01:36:52;25;24;
49644;PMS5003;36494;50.730;-1.932;2023-04-24T01:39:18;22;21;
49644;PMS5003;36494;50.730;-1.932;2023-04-24T01:41:43;29;26;
49644;PMS5003;36494;50.730;-1.932;2023-04-24T01:44:09;26;25;
49644;PMS5003;36494;50.730;-1.932;2023-04-24T01:46:35;30;28;
49644;PMS5003;36494;50.730;-1.932;2023-04-24T01:49:00;27;25;
49644;PMS5003;36494;50.730;-1.932;2023-04-24T01:51:25;23;23;
49644;PMS5003;36494;50.730;-1.932;2023-04-24T01:53:51;23;22;
49644;PMS5003;36494;50.730;-1.932;2023-04-24T01:56:16;24;24;
49644;PMS5003;36494;50.730;-1.932;2023-04-24T01:58:41;24;23;
49644;PMS5003;36494;50.730;-1.932;2023-04-24T02:01:07;25;25;
49644;PMS5003;36494;50.730;-1.932;2023-04-24T02:03:33;24;23;
49644;PMS5003;36494;50.730;-1.932;2023-04-24T02:05:58;21;20;
49644;PMS5003;36494;50.730;-1.932;2023-04-24T02:08:24;22;22;
49644;PMS5003;36494;50.730;-1.932;2023-04-24T02:10:49;24;23;
49644;PMS5003;36494;50.730;-1.932;2023-04-24T02:13:14;24;23;
49644;PMS5003;36494;50.730;-1.932;2023-04-24T02:15:39;27;25;
49644;PMS5003;36494;50.730;-1.932;2023-04-24T02:18:05;23;21;
49644;PMS5003;36494;50.730;-1.932;2023-04-24T02:20:30;24;22;
49644;PMS5003;36494;50.730;-1.932;2023-04-24T02:22:55;20;19;
49644;PMS5003;36494;50.730;-1.932;2023-04-24T02:25:21;23;22;
49644;PMS5003;36494;50.730;-1.932;2023-04-24T02:27:46;22;21;
49644;PMS5003;36494;50.730;-1.932;2023-04-24T02:30:12;24;22;
49644;PMS5003;36494;50.730;-1.932;2023-04-24T02:32:37;26;23;
49644;PMS5003;36494;50.730;-1.932;2023-04-24T02:35:02;21;21;
49644;PMS5003;36494;50.730;-1.932;2023-04-24T02:37:27;22;20;
49644;PMS5003;36494;50.730;-1.932;2023-04-24T02:39:53;22;22;
49644;PMS5003;36494;50.730;-1.932;2023-04-24T02:42:18;22;22;
49644;PMS5003;36494;50.730;-1.932;2023-04-24T02:44:43;22;21;
49644;PMS5003;36494;50.730;-1.932;2023-04-24T02:47:09;26;25;
49644;PMS5003;36494;50.730;-1.932;2023-04-24T02:49:34;27;25;
49644;PMS5003;36494;50.730;-1.932;2023-04-24T02:52:00;27;24;
49644;PMS5003;36494;50.730;-1.932;2023-04-24T02:54:25;25;23;
49644;PMS5003;36494;50.730;-1.932;2023-04-24T02:56:50;23;22;
49644;PMS5003;36494;50.730;-1.932;2023-04-24T02:59:16;23;21;
49644;PMS5003;36494;50.730;-1.932;2023-04-24T03:01:41;22;21;
49644;PMS5003;36494;50.730;-1.932;2023-04-24T03:04:07;21;21;
49644;PMS5003;36494;50.730;-1.932;2023-04-24T03:06:32;18;17;
49644;PMS5003;36494;50.730;-1.932;2023-04-24T03:08:58;25;23;
49644;PMS5003;36494;50.730;-1.932;2023-04-24T03:11:23;24;22;
49644;PMS5003;36494;50.730;-1.932;2023-04-24T03:13:48;24;23;
49644;PMS5003;36494;50.730;-1.932;2023-04-24T03:16:14;22;20;
49644;PMS5003;36494;50.730;-1.932;2023-04-24T03:18:40;23;23;
49644;PMS5003;36494;50.730;-1.932;2023-04-24T03:21:05;24;23;
49644;PMS5003;36494;50.730;-1.932;2023-04-24T03:23:30;27;23;
49644;PMS5003;36494;50.730;-1.932;2023-04-24T03:25:55;27;24;
49644;PMS5003;36494;50.730;-1.932;2023-04-24T03:28:21;23;22;
49644;PMS5003;36494;50.730;-1.932;2023-04-24T03:30:46;21;20;
49644;PMS5003;36494;50.730;-1.932;2023-04-24T03:33:12;29;25;
49644;PMS5003;36494;50.730;-1.932;2023-04-24T03:35:37;28;28;
49644;PMS5003;36494;50.730;-1.932;2023-04-24T03:38:03;25;24;
49644;PMS5003;36494;50.730;-1.932;2023-04-24T03:40:28;24;22;
49644;PMS5003;36494;50.730;-1.932;2023-04-24T03:42:54;22;22;
49644;PMS5003;36494;50.730;-1.932;2023-04-24T03:45:19;25;23;
49644;PMS5003;36494;50.730;-1.932;2023-04-24T03:47:45;24;23;
49644;PMS5003;36494;50.730;-1.932;2023-04-24T03:50:10;24;23;
49644;PMS5003;36494;50.730;-1.932;2023-04-24T03:52:35;23;22;
49644;PMS5003;36494;50.730;-1.932;2023-04-24T03:55:00;27;25;
49644;PMS5003;36494;50.730;-1.932;2023-04-24T03:57:26;26;25;
49644;PMS5003;36494;50.730;-1.932;2023-04-24T03:59:51;28;26;
49644;PMS5003;36494;50.730;-1.932;2023-04-24T04:02:16;23;21;
49644;PMS5003;36494;50.730;-1.932;2023-04-24T04:04:42;26;24;
49644;PMS5003;36494;50.730;-1.932;2023-04-24T04:07:07;26;24;
49644;PMS5003;36494;50.730;-1.932;2023-04-24T04:09:32;28;27;
49644;PMS5003;36494;50.730;-1.932;2023-04-24T04:11:58;24;23;
49644;PMS5003;36494;50.730;-1.932;2023-04-24T04:14:23;24;24;
49644;PMS5003;36494;50.730;-1.932;2023-04-24T04:16:49;29;28;
49644;PMS5003;36494;50.730;-1.932;2023-04-24T04:19:14;26;24;
49644;PMS5003;36494;50.730;-1.932;2023-04-24T04:21:40;27;27;
49644;PMS5003;36494;50.730;-1.932;2023-04-24T04:24:05;29;28;
49644;PMS5003;36494;50.730;-1.932;2023-04-24T04:26:31;26;24;
49644;PMS5003;36494;50.730;-1.932;2023-04-24T04:28:57;27;25;
49644;PMS5003;36494;50.730;-1.932;2023-04-24T04:31:22;26;24;
49644;PMS5003;36494;50.730;-1.932;2023-04-24T04:33:47;30;27;
49644;PMS5003;36494;50.730;-1.932;2023-04-24T04:36:12;33;31;
49644;PMS5003;36494;50.730;-1.932;2023-04-24T04:38:38;27;25;
49644;PMS5003;36494;50.730;-1.932;2023-04-24T04:41:04;26;23;
49644;PMS5003;36494;50.730;-1.932;2023-04-24T04:43:30;24;23;
49644;PMS5003;36494;50.730;-1.932;2023-04-24T04:45:55;22;22;
49644;PMS5003;36494;50.730;-1.932;2023-04-24T04:48:21;39;35;
49644;PMS5003;36494;50.730;-1.932;2023-04-24T04:50:47;29;28;
49644;PMS5003;36494;50.730;-1.932;2023-04-24T04:53:12;29;28;
49644;PMS5003;36494;50.730;-1.932;2023-04-24T04:55:38;34;31;
49644;PMS5003;36494;50.730;-1.932;2023-04-24T04:58:03;30;27;
49644;PMS5003;36494;50.730;-1.932;2023-04-24T05:00:29;28;27;
49644;PMS5003;36494;50.730;-1.932;2023-04-24T05:02:54;23;22;
49644;PMS5003;36494;50.730;-1.932;2023-04-24T05:05:20;27;26;
49644;PMS5003;36494;50.730;-1.932;2023-04-24T05:07:45;30;27;
49644;PMS5003;36494;50.730;-1.932;2023-04-24T05:10:11;28;26;
49644;PMS5003;36494;50.730;-1.932;2023-04-24T05:12:36;31;29;
49644;PMS5003;36494;50.730;-1.932;2023-04-24T05:15:01;27;25;
49644;PMS5003;36494;50.730;-1.932;2023-04-24T05:17:27;33;29;
49644;PMS5003;36494;50.730;-1.932;2023-04-24T05:19:52;28;27;
49644;PMS5003;36494;50.730;-1.932;2023-04-24T05:22:18;28;27;
49644;PMS5003;36494;50.730;-1.932;2023-04-24T05:24:43;29;27;
49644;PMS5003;36494;50.730;-1.932;2023-04-24T05:27:09;33;31;
49644;PMS5003;36494;50.730;-1.932;2023-04-24T05:29:34;27;26;
49644;PMS5003;36494;50.730;-1.932;2023-04-24T05:32:00;27;26;
49644;PMS5003;36494;50.730;-1.932;2023-04-24T05:34:26;30;28;
49644;PMS5003;36494;50.730;-1.932;2023-04-24T05:36:51;30;30;
49644;PMS5003;36494;50.730;-1.932;2023-04-24T05:39:17;30;28;
49644;PMS5003;36494;50.730;-1.932;2023-04-24T05:41:42;28;28;
49644;PMS5003;36494;50.730;-1.932;2023-04-24T05:44:08;27;27;
49644;PMS5003;36494;50.730;-1.932;2023-04-24T05:46:33;26;25;
49644;PMS5003;36494;50.730;-1.932;2023-04-24T05:48:59;28;26;
49644;PMS5003;36494;50.730;-1.932;2023-04-24T05:51:25;32;27;
49644;PMS5003;36494;50.730;-1.932;2023-04-24T05:53:50;29;26;
49644;PMS5003;36494;50.730;-1.932;2023-04-24T05:56:15;29;28;
49644;PMS5003;36494;50.730;-1.932;2023-04-24T05:58:41;33;29;
49644;PMS5003;36494;50.730;-1.932;2023-04-24T06:01:06;32;28;
49644;PMS5003;36494;50.730;-1.932;2023-04-24T06:03:31;30;29;
49644;PMS5003;36494;50.730;-1.932;2023-04-24T06:05:56;32;31;
49644;PMS5003;36494;50.730;-1.932;2023-04-24T06:08:21;32;32;
49644;PMS5003;36494;50.730;-1.932;2023-04-24T06:10:46;28;28;
49644;PMS5003;36494;50.730;-1.932;2023-04-24T06:13:11;28;27;
49644;PMS5003;36494;50.730;-1.932;2023-04-24T06:15:37;29;28;
49644;PMS5003;36494;50.730;-1.932;2023-04-24T06:18:03;31;31;
49644;PMS5003;36494;50.730;-1.932;2023-04-24T06:20:28;34;31;
49644;PMS5003;36494;50.730;-1.932;2023-04-24T06:22:53;34;32;
49644;PMS5003;36494;50.730;-1.932;2023-04-24T06:25:18;34;33;
49644;PMS5003;36494;50.730;-1.932;2023-04-24T06:27:44;27;27;
49644;PMS5003;36494;50.730;-1.932;2023-04-24T06:30:10;32;29;
49644;PMS5003;36494;50.730;-1.932;2023-04-24T06:32:35;28;28;
49644;PMS5003;36494;50.730;-1.932;2023-04-24T06:35:00;34;29;
49644;PMS5003;36494;50.730;-1.932;2023-04-24T06:37:25;29;25;
49644;PMS5003;36494;50.730;-1.932;2023-04-24T06:39:51;27;26;
49644;PMS5003;36494;50.730;-1.932;2023-04-24T06:42:16;32;31;
49644;PMS5003;36494;50.730;-1.932;2023-04-24T06:44:42;34;32;
49644;PMS5003;36494;50.730;-1.932;2023-04-24T06:47:07;28;27;
49644;PMS5003;36494;50.730;-1.932;2023-04-24T06:49:33;31;28;
49644;PMS5003;36494;50.730;-1.932;2023-04-24T06:51:59;32;30;
49644;PMS5003;36494;50.730;-1.932;2023-04-24T06:54:24;27;27;
49644;PMS5003;36494;50.730;-1.932;2023-04-24T06:56:49;26;25;
49644;PMS5003;36494;50.730;-1.932;2023-04-24T06:59:14;27;26;
49644;PMS5003;36494;50.730;-1.932;2023-04-24T07:01:40;23;22;
49644;PMS5003;36494;50.730;-1.932;2023-04-24T07:04:06;27;27;
49644;PMS5003;36494;50.730;-1.932;2023-04-24T07:06:32;21;21;
49644;PMS5003;36494;50.730;-1.932;2023-04-24T07:08:57;28;27;
49644;PMS5003;36494;50.730;-1.932;2023-04-24T07:11:23;27;27;
49644;PMS5003;36494;50.730;-1.932;2023-04-24T07:13:49;24;24;
49644;PMS5003;36494;50.730;-1.932;2023-04-24T07:16:14;27;24;
49644;PMS5003;36494;50.730;-1.932;2023-04-24T07:18:40;27;24;
49644;PMS5003;36494;50.730;-1.932;2023-04-24T07:21:05;24;22;
49644;PMS5003;36494;50.730;-1.932;2023-04-24T07:23:30;29;26;
49644;PMS5003;36494;50.730;-1.932;2023-04-24T07:25:55;23;23;
49644;PMS5003;36494;50.730;-1.932;2023-04-24T07:28:21;21;21;
49644;PMS5003;36494;50.730;-1.932;2023-04-24T07:30:46;23;21;
49644;PMS5003;36494;50.730;-1.932;2023-04-24T07:33:12;22;21;
49644;PMS5003;36494;50.730;-1.932;2023-04-24T07:35:37;22;20;
49644;PMS5003;36494;50.730;-1.932;2023-04-24T07:38:02;22;21;
49644;PMS5003;36494;50.730;-1.932;2023-04-24T07:40:27;21;21;
49644;PMS5003;36494;50.730;-1.932;2023-04-24T07:42:53;19;18;
49644;PMS5003;36494;50.730;-1.932;2023-04-24T07:45:18;24;24;
49644;PMS5003;36494;50.730;-1.932;2023-04-24T07:47:44;28;26;
49644;PMS5003;36494;50.730;-1.932;2023-04-24T07:50:09;22;20;
49644;PMS5003;36494;50.730;-1.932;2023-04-24T07:52:34;23;21;
49644;PMS5003;36494;50.730;-1.932;2023-04-24T07:55:00;28;25;
49644;PMS5003;36494;50.730;-1.932;2023-04-24T07:57:25;23;22;
49644;PMS5003;36494;50.730;-1.932;2023-04-24T07:59:50;20;18;
49644;PMS5003;36494;50.730;-1.932;2023-04-24T08:02:15;26;23;
49644;PMS5003;36494;50.730;-1.932;2023-04-24T08:04:40;17;15;
49644;PMS5003;36494;50.730;-1.932;2023-04-24T08:07:06;21;21;
49644;PMS5003;36494;50.730;-1.932;2023-04-24T08:09:32;19;18;
49644;PMS5003;36494;50.730;-1.932;2023-04-24T08:11:58;18;17;
49644;PMS5003;36494;50.730;-1.932;2023-04-24T08:14:23;22;22;
49644;PMS5003;36494;50.730;-1.932;2023-04-24T08:16:49;20;18;
49644;PMS5003;36494;50.730;-1.932;2023-04-24T08:19:14;23;20;
49644;PMS5003;36494;50.730;-1.932;2023-04-24T08:21:39;15;14;
49644;PMS5003;36494;50.730;-1.932;2023-04-24T08:24:05;16;16;
49644;PMS5003;36494;50.730;-1.932;2023-04-24T08:26:30;18;17;
49644;PMS5003;36494;50.730;-1.932;2023-04-24T08:28:56;17;16;
49644;PMS5003;36494;50.730;-1.932;2023-04-24T08:31:21;15;15;
49644;PMS5003;36494;50.730;-1.932;2023-04-24T08:33:46;18;17;
49644;PMS5003;36494;50.730;-1.932;2023-04-24T08:36:11;15;15;
49644;PMS5003;36494;50.730;-1.932;2023-04-24T08:38:36;14;13;
49644;PMS5003;36494;50.730;-1.932;2023-04-24T08:41:02;15;13;
49644;PMS5003;36494;50.730;-1.932;2023-04-24T08:43:27;13;13;
49644;PMS5003;36494;50.730;-1.932;2023-04-24T08:45:53;11;11;
49644;PMS5003;36494;50.730;-1.932;2023-04-24T08:48:18;16;15;
49644;PMS5003;36494;50.730;-1.932;2023-04-24T08:50:43;14;14;
49644;PMS5003;36494;50.730;-1.932;2023-04-24T08:53:09;16;14;
49644;PMS5003;36494;50.730;-1.932;2023-04-24T08:55:34;12;12;
49644;PMS5003;36494;50.730;-1.932;2023-04-24T08:57:59;11;10;
49644;PMS5003;36494;50.730;-1.932;2023-04-24T09:00:24;15;14;
49644;PMS5003;36494;50.730;-1.932;2023-04-24T09:02:50;14;14;
49644;PMS5003;36494;50.730;-1.932;2023-04-24T09:05:16;13;13;
49644;PMS5003;36494;50.730;-1.932;2023-04-24T09:07:41;15;14;
49644;PMS5003;36494;50.730;-1.932;2023-04-24T09:10:07;16;14;
49644;PMS5003;36494;50.730;-1.932;2023-04-24T09:12:32;13;12;
49644;PMS5003;36494;50.730;-1.932;2023-04-24T09:14:57;13;13;
49644;PMS5003;36494;50.730;-1.932;2023-04-24T09:17:23;14;13;
49644;PMS5003;36494;50.730;-1.932;2023-04-24T09:19:48;11;11;
49644;PMS5003;36494;50.730;-1.932;2023-04-24T09:22:13;11;10;
49644;PMS5003;36494;50.730;-1.932;2023-04-24T09:24:38;12;11;
49644;PMS5003;36494;50.730;-1.932;2023-04-24T09:27:04;13;12;
49644;PMS5003;36494;50.730;-1.932;2023-04-24T09:29:29;9;9;
49644;PMS5003;36494;50.730;-1.932;2023-04-24T09:31:54;11;11;
49644;PMS5003;36494;50.730;-1.932;2023-04-24T09:34:20;20;18;
49644;PMS5003;36494;50.730;-1.932;2023-04-24T09:36:45;11;11;
49644;PMS5003;36494;50.730;-1.932;2023-04-24T09:39:13;11;10;
49644;PMS5003;36494;50.730;-1.932;2023-04-24T09:46:29;12;11;
49644;PMS5003;36494;50.730;-1.932;2023-04-24T09:48:53;10;10;
49644;PMS5003;36494;50.730;-1.932;2023-04-24T09:51:18;10;9;
49644;PMS5003;36494;50.730;-1.932;2023-04-24T09:53:45;8;8;
49644;PMS5003;36494;50.730;-1.932;2023-04-24T09:56:10;11;10;
49644;PMS5003;36494;50.730;-1.932;2023-04-24T09:58:36;8;7;
49644;PMS5003;36494;50.730;-1.932;2023-04-24T10:01:01;9;9;
49644;PMS5003;36494;50.730;-1.932;2023-04-24T10:03:27;13;11;
49644;PMS5003;36494;50.730;-1.932;2023-04-24T10:05:52;10;9;
49644;PMS5003;36494;50.730;-1.932;2023-04-24T10:08:17;9;9;
49644;PMS5003;36494;50.730;-1.932;2023-04-24T10:10:43;11;11;
49644;PMS5003;36494;50.730;-1.932;2023-04-24T10:13:08;10;10;
49644;PMS5003;36494;50.730;-1.932;2023-04-24T10:15:33;9;8;
49644;PMS5003;36494;50.730;-1.932;2023-04-24T10:17:58;11;11;
49644;PMS5003;36494;50.730;-1.932;2023-04-24T10:20:25;10;10;
49644;PMS5003;36494;50.730;-1.932;2023-04-24T10:22:49;9;9;
49644;PMS5003;36494;50.730;-1.932;2023-04-24T10:25:14;8;8;
49644;PMS5003;36494;50.730;-1.932;2023-04-24T10:27:39;10;9;
49644;PMS5003;36494;50.730;-1.932;2023-04-24T10:30:05;8;7;
49644;PMS5003;36494;50.730;-1.932;2023-04-24T10:32:30;8;8;
49644;PMS5003;36494;50.730;-1.932;2023-04-24T10:34:55;8;8;
49644;PMS5003;36494;50.730;-1.932;2023-04-24T10:37:20;9;9;
49644;PMS5003;36494;50.730;-1.932;2023-04-24T10:39:47;9;8;
49644;PMS5003;36494;50.730;-1.932;2023-04-24T10:42:15;9;8;
49644;PMS5003;36494;50.730;-1.932;2023-04-24T10:44:37;8;7;
49644;PMS5003;36494;50.730;-1.932;2023-04-24T10:47:03;11;10;
49644;PMS5003;36494;50.730;-1.932;2023-04-24T10:49:28;9;9;
49644;PMS5003;36494;50.730;-1.932;2023-04-24T10:51:53;10;10;
49644;PMS5003;36494;50.730;-1.932;2023-04-24T10:54:22;7;6;
49644;PMS5003;36494;50.730;-1.932;2023-04-24T10:56:44;9;8;
49644;PMS5003;36494;50.730;-1.932;2023-04-24T10:59:09;9;8;
49644;PMS5003;36494;50.730;-1.932;2023-04-24T11:01:34;10;10;
49644;PMS5003;36494;50.730;-1.932;2023-04-24T11:04:00;9;9;
49644;PMS5003;36494;50.730;-1.932;2023-04-24T11:06:28;11;9;
49644;PMS5003;36494;50.730;-1.932;2023-04-24T11:08:50;9;8;
49644;PMS5003;36494;50.730;-1.932;2023-04-24T11:11:16;10;9;
49644;PMS5003;36494;50.730;-1.932;2023-04-24T11:16:13;7;7;
49644;PMS5003;36494;50.730;-1.932;2023-04-24T11:18:37;9;9;
49644;PMS5003;36494;50.730;-1.932;2023-04-24T11:20:57;8;7;
49644;PMS5003;36494;50.730;-1.932;2023-04-24T11:23:23;15;13;
49644;PMS5003;36494;50.730;-1.932;2023-04-24T11:28:14;7;6;
49644;PMS5003;36494;50.730;-1.932;2023-04-24T11:30:40;7;7;
49644;PMS5003;36494;50.730;-1.932;2023-04-24T11:33:05;9;8;
49644;PMS5003;36494;50.730;-1.932;2023-04-24T11:35:30;7;6;
49644;PMS5003;36494;50.730;-1.932;2023-04-24T11:37:55;9;8;
49644;PMS5003;36494;50.730;-1.932;2023-04-24T11:40:21;8;7;
49644;PMS5003;36494;50.730;-1.932;2023-04-24T11:42:46;9;9;
49644;PMS5003;36494;50.730;-1.932;2023-04-24T11:45:12;8;8;
49644;PMS5003;36494;50.730;-1.932;2023-04-24T11:47:37;7;7;
49644;PMS5003;36494;50.730;-1.932;2023-04-24T11:50:03;11;10;
49644;PMS5003;36494;50.730;-1.932;2023-04-24T11:52:28;8;8;
49644;PMS5003;36494;50.730;-1.932;2023-04-24T11:54:53;7;6;
49644;PMS5003;36494;50.730;-1.932;2023-04-24T11:57:19;8;8;
49644;PMS5003;36494;50.730;-1.932;2023-04-24T11:59:44;8;8;
49644;PMS5003;36494;50.730;-1.932;2023-04-24T12:02:09;10;8;
49644;PMS5003;36494;50.730;-1.932;2023-04-24T12:04:38;13;8;
49644;PMS5003;36494;50.730;-1.932;2023-04-24T12:06:59;8;8;
49644;PMS5003;36494;50.730;-1.932;2023-04-24T12:09:25;8;8;
49644;PMS5003;36494;50.730;-1.932;2023-04-24T12:11:54;8;6;
49644;PMS5003;36494;50.730;-1.932;2023-04-24T12:14:16;8;8;
49644;PMS5003;36494;50.730;-1.932;2023-04-24T12:16:42;10;10;
49644;PMS5003;36494;50.730;-1.932;2023-04-24T12:19:08;9;8;
49644;PMS5003;36494;50.730;-1.932;2023-04-24T12:21:33;9;9;
49644;PMS5003;36494;50.730;-1.932;2023-04-24T12:23:59;8;8;
49644;PMS5003;36494;50.730;-1.932;2023-04-24T12:26:25;10;10;
49644;PMS5003;36494;50.730;-1.932;2023-04-24T12:28:50;7;6;
49644;PMS5003;36494;50.730;-1.932;2023-04-24T12:31:16;9;7;
49644;PMS5003;36494;50.730;-1.932;2023-04-24T12:33:42;10;10;
49644;PMS5003;36494;50.730;-1.932;2023-04-24T12:36:07;9;9;
49644;PMS5003;36494;50.730;-1.932;2023-04-24T12:38:33;8;7;
49644;PMS5003;36494;50.730;-1.932;2023-04-24T12:41:02;9;9;
49644;PMS5003;36494;50.730;-1.932;2023-04-24T12:43:23;9;8;
49644;PMS5003;36494;50.730;-1.932;2023-04-24T12:45:49;10;9;
49644;PMS5003;36494;50.730;-1.932;2023-04-24T12:48:14;11;8;
49644;PMS5003;36494;50.730;-1.932;2023-04-24T12:50:39;8;8;
49644;PMS5003;36494;50.730;-1.932;2023-04-24T12:53:05;8;7;
49644;PMS5003;36494;50.730;-1.932;2023-04-24T12:55:30;9;9;
49644;PMS5003;36494;50.730;-1.932;2023-04-24T12:57:55;11;9;
49644;PMS5003;36494;50.730;-1.932;2023-04-24T13:00:21;10;8;
49644;PMS5003;36494;50.730;-1.932;2023-04-24T13:02:46;8;7;
49644;PMS5003;36494;50.730;-1.932;2023-04-24T13:05:11;7;7;
49644;PMS5003;36494;50.730;-1.932;2023-04-24T13:07:37;11;10;
49644;PMS5003;36494;50.730;-1.932;2023-04-24T13:10:03;8;7;
49644;PMS5003;36494;50.730;-1.932;2023-04-24T13:12:28;9;8;
49644;PMS5003;36494;50.730;-1.932;2023-04-24T13:14:53;9;8;
49644;PMS5003;36494;50.730;-1.932;2023-04-24T13:17:18;9;8;
49644;PMS5003;36494;50.730;-1.932;2023-04-24T13:19:44;11;8;
49644;PMS5003;36494;50.730;-1.932;2023-04-24T13:22:10;10;10;
49644;PMS5003;36494;50.730;-1.932;2023-04-24T13:24:35;8;7;
49644;PMS5003;36494;50.730;-1.932;2023-04-24T13:27:01;8;6;
49644;PMS5003;36494;50.730;-1.932;2023-04-24T13:29:27;7;7;
49644;PMS5003;36494;50.730;-1.932;2023-04-24T13:31:52;7;7;
49644;PMS5003;36494;50.730;-1.932;2023-04-24T13:34:17;8;8;
49644;PMS5003;36494;50.730;-1.932;2023-04-24T13:36:43;8;8;
49644;PMS5003;36494;50.730;-1.932;2023-04-24T13:39:09;7;6;
49644;PMS5003;36494;50.730;-1.932;2023-04-24T13:41:34;6;6;
49644;PMS5003;36494;50.730;-1.932;2023-04-24T13:43:59;6;6;
49644;PMS5003;36494;50.730;-1.932;2023-04-24T13:46:25;6;6;
49644;PMS5003;36494;50.730;-1.932;2023-04-24T13:48:50;6;6;
49644;PMS5003;36494;50.730;-1.932;2023-04-24T13:51:15;7;6;
49644;PMS5003;36494;50.730;-1.932;2023-04-24T13:53:40;7;7;
49644;PMS5003;36494;50.730;-1.932;2023-04-24T13:56:05;6;6;
49644;PMS5003;36494;50.730;-1.932;2023-04-24T13:58:31;8;8;
49644;PMS5003;36494;50.730;-1.932;2023-04-24T14:00:56;7;6;
49644;PMS5003;36494;50.730;-1.932;2023-04-24T14:03:22;6;6;
49644;PMS5003;36494;50.730;-1.932;2023-04-24T14:05:47;7;7;
49644;PMS5003;36494;50.730;-1.932;2023-04-24T14:08:12;7;7;
49644;PMS5003;36494;50.730;-1.932;2023-04-24T14:10:38;9;9;
49644;PMS5003;36494;50.730;-1.932;2023-04-24T14:13:03;9;8;
49644;PMS5003;36494;50.730;-1.932;2023-04-24T14:15:29;7;7;
49644;PMS5003;36494;50.730;-1.932;2023-04-24T14:17:55;9;8;
49644;PMS5003;36494;50.730;-1.932;2023-04-24T14:20:20;7;7;
49644;PMS5003;36494;50.730;-1.932;2023-04-24T14:22:46;9;9;
49644;PMS5003;36494;50.730;-1.932;2023-04-24T14:25:11;9;9;
49644;PMS5003;36494;50.730;-1.932;2023-04-24T14:27:36;7;7;
49644;PMS5003;36494;50.730;-1.932;2023-04-24T14:30:02;8;7;
49644;PMS5003;36494;50.730;-1.932;2023-04-24T14:32:28;9;9;
49644;PMS5003;36494;50.730;-1.932;2023-04-24T14:34:53;9;9;
49644;PMS5003;36494;50.730;-1.932;2023-04-24T14:37:18;9;9;
49644;PMS5003;36494;50.730;-1.932;2023-04-24T14:39:44;9;9;
49644;PMS5003;36494;50.730;-1.932;2023-04-24T14:42:09;12;11;
49644;PMS5003;36494;50.730;-1.932;2023-04-24T14:44:34;11;10;
49644;PMS5003;36494;50.730;-1.932;2023-04-24T14:47:00;10;10;
49644;PMS5003;36494;50.730;-1.932;2023-04-24T14:49:25;8;8;
49644;PMS5003;36494;50.730;-1.932;2023-04-24T14:51:51;5;5;
49644;PMS5003;36494;50.730;-1.932;2023-04-24T14:54:16;8;8;
49644;PMS5003;36494;50.730;-1.932;2023-04-24T14:56:41;11;10;
49644;PMS5003;36494;50.730;-1.932;2023-04-24T14:59:07;10;8;
49644;PMS5003;36494;50.730;-1.932;2023-04-24T15:01:33;11;11;
49644;PMS5003;36494;50.730;-1.932;2023-04-24T15:03:58;10;9;
49644;PMS5003;36494;50.730;-1.932;2023-04-24T15:06:23;12;12;
49644;PMS5003;36494;50.730;-1.932;2023-04-24T15:08:49;17;16;
49644;PMS5003;36494;50.730;-1.932;2023-04-24T15:11:14;17;17;
49644;PMS5003;36494;50.730;-1.932;2023-04-24T15:13:39;11;11;
49644;PMS5003;36494;50.730;-1.932;2023-04-24T15:16:04;10;10;
49644;PMS5003;36494;50.730;-1.932;2023-04-24T15:18:30;10;10;
49644;PMS5003;36494;50.730;-1.932;2023-04-24T15:20:55;12;11;
49644;PMS5003;36494;50.730;-1.932;2023-04-24T15:23:20;14;12;
49644;PMS5003;36494;50.730;-1.932;2023-04-24T15:25:46;11;10;
49644;PMS5003;36494;50.730;-1.932;2023-04-24T15:28:11;10;9;
49644;PMS5003;36494;50.730;-1.932;2023-04-24T15:30:36;9;8;
49644;PMS5003;36494;50.730;-1.932;2023-04-24T15:33:02;9;9;
49644;PMS5003;36494;50.730;-1.932;2023-04-24T15:35:27;7;6;
49644;PMS5003;36494;50.730;-1.932;2023-04-24T15:37:52;9;9;
49644;PMS5003;36494;50.730;-1.932;2023-04-24T15:40:18;9;9;
49644;PMS5003;36494;50.730;-1.932;2023-04-24T15:42:44;11;11;
49644;PMS5003;36494;50.730;-1.932;2023-04-24T15:45:10;11;10;
49644;PMS5003;36494;50.730;-1.932;2023-04-24T15:47:34;15;13;
49644;PMS5003;36494;50.730;-1.932;2023-04-24T15:50:00;10;10;
49644;PMS5003;36494;50.730;-1.932;2023-04-24T15:52:25;13;13;
49644;PMS5003;36494;50.730;-1.932;2023-04-24T15:54:50;11;10;
49644;PMS5003;36494;50.730;-1.932;2023-04-24T15:57:16;7;7;
49644;PMS5003;36494;50.730;-1.932;2023-04-24T15:59:41;10;10;
49644;PMS5003;36494;50.730;-1.932;2023-04-24T16:02:07;10;10;
49644;PMS5003;36494;50.730;-1.932;2023-04-24T16:04:32;10;10;
49644;PMS5003;36494;50.730;-1.932;2023-04-24T16:06:57;9;9;
49644;PMS5003;36494;50.730;-1.932;2023-04-24T16:09:23;10;10;